NWS Home NWS Lubbock West Texas Mesonet Latest Conditions as of 1120 AM, Tue Sep 23, 2014

Latest   N   C   S   Daily Sum   3hrΔ   24hrΔ   Soil Data 
Site Map   24hr Precip   72hr Precip   Google Plot


Station Time of Last Temp Dew Pt. RH Wind Direction Wind Speed Wind Gust Max Wind Max Temp Min Temp Max RH Min RH Altimeter 1HR Rain Today's Rain Solar Rad
Abernathy 5ENE  11:15 AM 75 63 70% S1419 24 mph 182° @ 1010 AM 75 59 97 70 30.23" 0 0.00 672
Aiken 3WSW  11:16 AM 73 65 76% S1518 21 mph 192° @ 1012 AM 73 58 95 76 30.22" 0 0.00 691
Amarillo 15NNW   11:15 AM 77 61 57% SW1824 29 mph 206° @ 1009 AM 78 62 85 57 30.16" 0 0.00 694
Amarillo 7SSE  11:15 AM 76 63 62% SW1417 24 mph 197° @ 1001 AM 76 61 90 62 30.20" 0 0.00 695
Amarillo 9NNE  11:15 AM 77 60 56% S1926 30 mph 197° @ 1037 AM 77 62 87 56 30.17" 0 0.00 664
Amherst 1NE  11:15 AM 72 64 77% S812 15 mph 172° @ 1000 AM 72 59 100 77 30.23" 0 0.00 652
Andrews 2E  10:45 AM 72 60 68% S710 17 mph 154° @ 1010 AM 72 65 93 68 30.23" 0 0.00 232
Anton 6SSW  11:15 AM 71 64 84% S1315 18 mph 163° @ 1005 AM 71 60 100 84 30.22" 0 0.00 588
Aspermont 3NE  11:15 AM 76 59 57% SE812 16 mph 166° @ 1025 AM 76 62 78 54 30.18" 0 0.00 537
Big Bend NP - Persimmon Gap  11:16 AM 76 59 55% N46 12 mph 21° @ 0919 AM 76 69 70 55 30.19" 0 0.00 307
Big Lake 1WNW  11:15 AM 78 66 68% SE89 14 mph 173° @ 1053 AM 78 67 88 68 30.22" 0 0.00 657
Bootleg 11WNW  11:15 AM 70 58 67% SW1823 27 mph 205° @ 1109 AM 71 60 97 63 30.25" 0 0.00 371
Brownfield 2S  11:15 AM 70 64 82% S1316 17 mph 161° @ 1105 AM 70 62 98 82 30.22" 0 0.00 356
Canadian 6E  11:15 AM 76 59 55% S1622 31 mph 185° @ 1049 AM 76 61 73 52 30.13" 0 0.00 692
Caprock Canyons State Park  11:15 AM 77 64 65% S1619 24 mph 209° @ 1108 AM 77 60 85 64 30.19" 0 0.00 572
Childress 2NNE  11:15 AM 76 54 47% SE1318 19 mph 147° @ 0930 AM 76 60 79 47 30.18" 0 0.00 663
Clarendon 2WSW  11:15 AM 74 57 57% S1217 17 mph 180° @ 1110 AM 74 60 71 55 30.19" 0 0.00 555
Claude 12SW  11:15 AM 73 64 73% S1015 18 mph 167° @ 1103 AM 73 62 83 71 30.21" 0 0.00 772
Coyanosa 2N  11:15 AM 79 62 55% SE1315 19 mph 133° @ 1031 AM 79 65 88 54 30.19" 0 0.00 588
Denver City 7WNW  11:15 AM 73 58 60% S1823 24 mph 163° @ 1110 AM 74 60 99 60 30.21" 0 0.00 437
Dimmitt 2NE  11:15 AM 71 61 73% S1419 21 mph 182° @ 0925 AM 71 60 95 73 30.22" 0 0.00 396
Dora NM 2SW  11:15 AM 73 60 64% S1522 22 mph 199° @ 1115 AM 74 61 98 62 30.24" 0 0.00 626
Dozier 3W  11:15 AM 76 55 48% S1114 17 mph 175° @ 1027 AM 76 58 76 48 30.19" 0 0.00 670
Floydada 2NNE  11:15 AM 73 63 72% S1418 22 mph 189° @ 1055 AM 73 59 91 72 30.21" 0 0.00 695
Fluvanna 3WNW  11:15 AM 72 64 77% S1316 19 mph 175° @ 1045 AM 72 65 87 71 30.21" 0 0.00 429
Friona 2NE  11:15 AM 70 59 70% SW1621 21 mph 210° @ 1115 AM 70 60 95 70 30.23" 0 0.00 433
Gail 2ESE  11:15 AM 75 67 78% S1014 15 mph 172° @ 1110 AM 75 65 95 78 30.19" 0 0.00 582
Goodlett 3W  11:15 AM 77 53 44% SE1420 20 mph 149° @ 1115 AM 77 62 71 44 30.17" 0 0.00 650
Graham 5SSW  11:15 AM 72 65 81% S1116 16 mph 177° @ 1100 AM 72 65 93 73 30.20" 0 0.00 406
Guadalupe Mtns Natl Park  11:15 AM 64 52 68% SW89 13 mph 297° @ 0551 AM 64 57 87 51 30.32" 0 0.01 154
Guthrie 10WSW  11:15 AM 75 58 58% S812 13 mph 156° @ 1020 AM 75 61 90 58 30.18" 0 0.00 616
Hart 3N  11:15 AM 72 63 74% S1518 20 mph 189° @ 0950 AM 72 58 98 74 30.22" 0 0.00 519
Haskell 1NW  11:15 AM 75 53 48% S1116 16 mph 175° @ 1115 AM 75 65 62 48 30.18" 0 0.00 416
Hereford 2NW  11:15 AM 71 59 68% S1417 23 mph 200° @ 0940 AM 71 60 91 68 30.21" 0 0.00 231
Hobbs NM 5NW  11:15 AM 72 59 64% S1922 25 mph 167° @ 1113 AM 72 62 97 63 30.24" 0 0.00 301
Jayton 1SSE  11:15 AM 75 61 62% S913 15 mph 160° @ 0955 AM 75 62 86 57 30.18" 0 0.00 365
Junction 1SSW  11:15 AM 80 66 63% SE45 11 mph 129° @ 1100 AM 80 63 95 63 30.19" 0 0.00 601
Knox City 3NW  11:15 AM 77 53 44% S1114 18 mph 127° @ 0140 AM 77 65 66 43 30.18" 0 0.00 597
Lake Alan Henry 1NW  11:15 AM 76 65 69% S1215 15 mph 199° @ 1115 AM 76 63 92 69 30.18" 0 0.00 485
Lamesa 2SE  11:15 AM 73 66 82% S1015 19 mph 160° @ 0955 AM 73 65 97 82 30.23" 0 0.00 531
Levelland 4S  11:15 AM 73 63 72% S913 15 mph 166° @ 1025 AM 73 60 95 72 30.22" 0 0.00 695
Lomax 1SSE  11:15 AM 76 67 73% S1215 20 mph 154° @ 1048 AM 77 67 94 73 30.21" 0 0.00 390
Lubbock 3WNW TTU  11:15 AM 74 63 72% S1115 17 mph 153° @ 0950 AM 74 63 89 72 30.22" 0 0.00 641
McLean 1E  11:15 AM 75 55 50% S1824 24 mph 172° @ 1105 AM 75 58 70 50 30.17" 0 0.00 802
Memphis 1NE  11:15 AM 75 55 50% S1116 16 mph 165° @ 1115 AM 75 59 78 48 30.18" 0 0.00 403
Mertzon 3NNE  11:16 AM 80 67 64% SE510 14 mph 148° @ 1034 AM 80 66 92 64 30.21" 0 0.00 802
Morton 1ENE  11:15 AM 74 60 62% S1520 20 mph 187° @ 1115 AM 74 59 100 62 30.23" 0 0.00 651
Muleshoe 2SSW  11:15 AM 72 60 68% S1016 18 mph 193° @ 1100 AM 72 61 97 67 30.23" 0 0.00 399
Northfield 1S  11:15 AM 77 59 55% S1016 17 mph 167° @ 1050 AM 77 61 83 55 30.17" 0 0.00 697
O'Donnell 1N  11:15 AM 72 64 77% S1317 19 mph 180° @ 1055 AM 72 63 95 77 30.21" 0 0.00 421
Odell 4ENE  11:15 AM 75 54 48% SE1315 19 mph 136° @ 1035 AM 75 59 84 47 30.19" 0 0.00 608
Olton 6S  11:15 AM 72 63 75% S1116 20 mph 175° @ 1015 AM 72 58 94 75 30.22" 0 0.00 705
Paducah 10SW  11:15 AM 75 58 56% S1115 19 mph 172° @ 1025 AM 75 60 88 56 30.18" 0 0.00 582
Palo Duro Canyon State Park  11:15 AM 76 63 64% S1317 21 mph 195° @ 1112 AM 76 61 84 64 30.21" 0 0.00 615
Pampa 2E  11:15 AM 74 61 65% S1722 25 mph 180° @ 1055 AM 74 60 78 63 30.18" 0 0.00 642
Plains 3N  11:15 AM 71 61 72% S1216 16 mph 160° @ 1115 AM 71 61 98 72 30.23" 0 0.00 356
Plainview 1S  11:15 AM 73 65 77% S1318 20 mph 194° @ 1035 AM 73 59 93 77 30.20" 0 0.00 600
Post 1NE  11:15 AM 75 65 73% S1118 20 mph 184° @ 1100 AM 75 62 100 73 30.19" 0 0.00 595
Ralls 1SE  11:15 AM 71 63 80% S1116 19 mph 185° @ 1055 AM 72 60 92 77 30.22" 0 0.00 399
Reese Center  11:15 AM 71 64 79% S1317 19 mph 164° @ 0945 AM 71 62 93 79 30.22" 0 0.00 514
Roaring Springs 3N  08:55 AM 65 58 79% S710 11 mph 175° @ 0730 AM 65 59 89 79 30.19" 0 0.00 134
San Angelo 7NW  11:15 AM 78 63 63% SE611 12 mph 112° @ 1035 AM 78 68 84 63 30.20" 0 0.00 724
Seminole 2NNE  11:15 AM 75 60 61% S1518 19 mph 156° @ 1100 AM 75 63 96 60 30.21" 0 0.00 759
Seymour 3NW  11:15 AM 76 51 43% SE1114 17 mph 147° @ 0945 AM 76 64 65 43 30.18" 0 0.00 560
Silverton 7ESE  11:15 AM 76 63 66% S1520 25 mph 193° @ 1035 AM 76 59 84 66 30.21" 0 0.00 707
Slaton 2NE  11:15 AM 73 65 77% S1721 21 mph 181° @ 1115 AM 73 60 92 77 30.21" 0 0.00 650
Snyder 3E  11:15 AM 76 65 71% S1420 20 mph 175° @ 1115 AM 76 65 88 70 30.19" 0 0.00 574
Spur 1W  11:15 AM 73 60 64% S913 14 mph 197° @ 1105 AM 73 61 91 64 30.19" 0 0.00 575
St. Lawrence 5SW  11:15 AM 75 66 76% SE1114 17 mph 137° @ 1010 AM 75 64 100 76 30.22" 0 0.00 399
Sterling City 4WSW  11:15 AM 77 67 71% SE911 16 mph 140° @ 1100 AM 77 67 94 71 30.21" 0 0.00 772
Sundown 8WSW  11:15 AM 72 62 72% S1114 16 mph 166° @ 0940 AM 72 61 98 71 30.23" 0 0.00 311
Sweetwater 11SW   11:15 AM 76 64 67% S1417 23 mph 142° @ 0420 AM 76 66 88 64 30.21" 0 0.00 665
Tahoka 3NNE  11:15 AM 72 64 80% S1217 19 mph 170° @ 1030 AM 72 61 100 80 30.21" 0 0.00 515
Tatum NM 2SW  11:15 AM 74 59 61% S1722 22 mph 160° @ 1100 AM 74 60 94 61 30.24" 0 0.00 463
Tulia 2ENE  11:15 AM 73 64 75% S1520 23 mph 197° @ 1055 AM 73 58 95 75 30.21" 0 0.00 617
Turkey 2WSW  11:15 AM 77 64 65% S813 13 mph 158° @ 1115 AM 77 60 90 65 30.17" 0 0.00 648
Umbarger 3NNE  11:15 AM 72 60 65% SW1518 25 mph 201° @ 0923 AM 73 60 91 64 30.21" 0 0.00 460
Wall 1E  11:15 AM 76 65 70% SE59 10 mph 102° @ 1250 AM 76 63 93 70 30.20" 0 0.00 311
Weinert 2NNE  11:16 AM 76 56 50% S79 17 mph 154° @ 1013 AM 76 63 72 49 30.18" 0 0.00 444
White River Lake 6NW  11:15 AM 72 62 72% S1114 15 mph 162° @ 1110 AM 72 61 86 68 30.20" 0 0.00 658
Wolfforth 6SSW  11:15 AM 74 65 75% S1115 17 mph 169° @ 1040 AM 74 61 100 75 30.22" 0 0.00 621

West Texas Mesonet Home   Site Map/Menu  NWS Lubbock Soil Data  Daily Summary Page  24hr Precip  72hr Precip  Google Plot